Terminal Aerodrome Forecast
Issued by NWS Shreveport, LA

Current Version | Previous Version | Text Only | Print | Product List | Glossary On
Versions: 1 2 3 4 5 6 7 8 9 10 11 12 13 14 15 16 17 18 19 20
000
FTUS44 KSHV 061700
TAFGGG
TAF
KGGG 061740Z 0618/0718 VRB04KT P6SM FEW250
     FM070100 VRB03KT P6SM SKC
     FM071500 18003KT P6SM FEW250=

USA.gov is the U.S. government's official web portal to all federal, state and local government web resources and services.